sensor_id;sensor_type;location;lat;lon;timestamp;temperature;humidity
27200;DHT22;14714;48.106;11.546;2023-06-22T00:01:19;20.00;99.90
27200;DHT22;14714;48.106;11.546;2023-06-22T00:03:46;20.00;99.90
27200;DHT22;14714;48.106;11.546;2023-06-22T00:06:13;20.10;99.90
27200;DHT22;14714;48.106;11.546;2023-06-22T00:08:40;20.10;99.90
27200;DHT22;14714;48.106;11.546;2023-06-22T00:11:07;20.10;99.90
27200;DHT22;14714;48.106;11.546;2023-06-22T00:13:34;20.10;99.90
27200;DHT22;14714;48.106;11.546;2023-06-22T00:16:01;20.10;99.90
27200;DHT22;14714;48.106;11.546;2023-06-22T00:18:28;20.10;99.90
27200;DHT22;14714;48.106;11.546;2023-06-22T00:20:57;20.10;99.90
27200;DHT22;14714;48.106;11.546;2023-06-22T00:23:25;20.10;99.90
27200;DHT22;14714;48.106;11.546;2023-06-22T00:25:52;20.20;99.90
27200;DHT22;14714;48.106;11.546;2023-06-22T00:28:19;20.10;99.90
27200;DHT22;14714;48.106;11.546;2023-06-22T00:30:47;20.10;99.90
27200;DHT22;14714;48.106;11.546;2023-06-22T00:33:14;20.10;99.90
27200;DHT22;14714;48.106;11.546;2023-06-22T00:35:43;20.10;99.90
27200;DHT22;14714;48.106;11.546;2023-06-22T00:38:10;20.10;99.90
27200;DHT22;14714;48.106;11.546;2023-06-22T00:40:37;20.00;99.90
27200;DHT22;14714;48.106;11.546;2023-06-22T00:43:04;20.00;99.90
27200;DHT22;14714;48.106;11.546;2023-06-22T00:45:31;20.00;99.90
27200;DHT22;14714;48.106;11.546;2023-06-22T00:47:59;20.00;99.90
27200;DHT22;14714;48.106;11.546;2023-06-22T00:50:28;20.00;99.90
27200;DHT22;14714;48.106;11.546;2023-06-22T00:53:03;19.90;99.90
27200;DHT22;14714;48.106;11.546;2023-06-22T00:55:45;19.90;99.90
27200;DHT22;14714;48.106;11.546;2023-06-22T00:58:14;19.80;99.90
27200;DHT22;14714;48.106;11.546;2023-06-22T01:00:41;19.80;99.90
27200;DHT22;14714;48.106;11.546;2023-06-22T01:03:08;19.80;99.90
27200;DHT22;14714;48.106;11.546;2023-06-22T01:05:37;19.70;99.90
27200;DHT22;14714;48.106;11.546;2023-06-22T01:10:41;19.60;99.90
27200;DHT22;14714;48.106;11.546;2023-06-22T01:13:41;19.60;99.90
27200;DHT22;14714;48.106;11.546;2023-06-22T01:16:20;19.60;99.90
27200;DHT22;14714;48.106;11.546;2023-06-22T01:18:52;19.50;99.90
27200;DHT22;14714;48.106;11.546;2023-06-22T01:21:22;19.50;99.90
27200;DHT22;14714;48.106;11.546;2023-06-22T01:26:31;19.40;99.90
27200;DHT22;14714;48.106;11.546;2023-06-22T01:29:03;19.40;99.90
27200;DHT22;14714;48.106;11.546;2023-06-22T01:31:32;19.40;99.90
27200;DHT22;14714;48.106;11.546;2023-06-22T01:34:03;19.30;99.90
27200;DHT22;14714;48.106;11.546;2023-06-22T01:36:32;19.30;99.90
27200;DHT22;14714;48.106;11.546;2023-06-22T01:39:00;19.30;99.90
27200;DHT22;14714;48.106;11.546;2023-06-22T01:41:30;19.30;99.90
27200;DHT22;14714;48.106;11.546;2023-06-22T01:43:57;19.20;99.90
27200;DHT22;14714;48.106;11.546;2023-06-22T01:46:24;19.10;99.90
27200;DHT22;14714;48.106;11.546;2023-06-22T01:48:52;19.10;99.90
27200;DHT22;14714;48.106;11.546;2023-06-22T01:51:19;19.10;99.90
27200;DHT22;14714;48.106;11.546;2023-06-22T01:53:46;19.10;99.90
27200;DHT22;14714;48.106;11.546;2023-06-22T01:56:17;19.00;99.90
27200;DHT22;14714;48.106;11.546;2023-06-22T01:58:54;19.00;99.90
27200;DHT22;14714;48.106;11.546;2023-06-22T02:01:26;19.00;99.90
27200;DHT22;14714;48.106;11.546;2023-06-22T02:04:05;18.90;99.90
27200;DHT22;14714;48.106;11.546;2023-06-22T02:06:38;18.90;99.90
27200;DHT22;14714;48.106;11.546;2023-06-22T02:09:11;18.90;99.90
27200;DHT22;14714;48.106;11.546;2023-06-22T02:11:41;18.80;99.90
27200;DHT22;14714;48.106;11.546;2023-06-22T02:14:08;18.80;99.90
27200;DHT22;14714;48.106;11.546;2023-06-22T02:16:35;18.70;99.90
27200;DHT22;14714;48.106;11.546;2023-06-22T02:19:04;18.70;99.90
27200;DHT22;14714;48.106;11.546;2023-06-22T02:21:32;18.60;99.90
27200;DHT22;14714;48.106;11.546;2023-06-22T02:23:59;18.50;99.90
27200;DHT22;14714;48.106;11.546;2023-06-22T02:26:26;18.50;99.90
27200;DHT22;14714;48.106;11.546;2023-06-22T02:28:54;18.40;99.90
27200;DHT22;14714;48.106;11.546;2023-06-22T02:31:20;18.30;99.90
27200;DHT22;14714;48.106;11.546;2023-06-22T02:33:47;18.30;99.90
27200;DHT22;14714;48.106;11.546;2023-06-22T02:36:15;18.30;99.90
27200;DHT22;14714;48.106;11.546;2023-06-22T02:38:43;18.20;99.90
27200;DHT22;14714;48.106;11.546;2023-06-22T02:41:15;18.20;99.90
27200;DHT22;14714;48.106;11.546;2023-06-22T02:43:45;18.20;99.90
27200;DHT22;14714;48.106;11.546;2023-06-22T02:46:13;18.10;99.90
27200;DHT22;14714;48.106;11.546;2023-06-22T02:48:41;18.20;99.90
27200;DHT22;14714;48.106;11.546;2023-06-22T02:51:08;18.10;99.90
27200;DHT22;14714;48.106;11.546;2023-06-22T02:53:35;18.10;99.90
27200;DHT22;14714;48.106;11.546;2023-06-22T02:56:02;18.10;99.90
27200;DHT22;14714;48.106;11.546;2023-06-22T02:58:32;18.10;99.90
27200;DHT22;14714;48.106;11.546;2023-06-22T03:01:05;18.10;99.90
27200;DHT22;14714;48.106;11.546;2023-06-22T03:03:32;18.00;99.90
27200;DHT22;14714;48.106;11.546;2023-06-22T03:06:00;18.00;99.90
27200;DHT22;14714;48.106;11.546;2023-06-22T03:08:28;18.00;99.90
27200;DHT22;14714;48.106;11.546;2023-06-22T03:10:55;17.90;99.90
27200;DHT22;14714;48.106;11.546;2023-06-22T03:13:23;17.90;99.90
27200;DHT22;14714;48.106;11.546;2023-06-22T03:15:50;18.00;99.90
27200;DHT22;14714;48.106;11.546;2023-06-22T03:18:17;18.00;99.90
27200;DHT22;14714;48.106;11.546;2023-06-22T03:20:44;18.00;99.90
27200;DHT22;14714;48.106;11.546;2023-06-22T03:23:10;18.10;99.90
27200;DHT22;14714;48.106;11.546;2023-06-22T03:25:37;18.10;99.90
27200;DHT22;14714;48.106;11.546;2023-06-22T03:28:04;18.10;99.90
27200;DHT22;14714;48.106;11.546;2023-06-22T03:30:31;18.10;99.90
27200;DHT22;14714;48.106;11.546;2023-06-22T03:32:58;18.10;99.90
27200;DHT22;14714;48.106;11.546;2023-06-22T03:35:25;18.10;99.90
27200;DHT22;14714;48.106;11.546;2023-06-22T03:37:52;18.10;99.90
27200;DHT22;14714;48.106;11.546;2023-06-22T03:40:19;18.10;99.90
27200;DHT22;14714;48.106;11.546;2023-06-22T03:42:46;18.10;99.90
27200;DHT22;14714;48.106;11.546;2023-06-22T03:45:13;18.10;99.90
27200;DHT22;14714;48.106;11.546;2023-06-22T03:47:40;18.10;99.90
27200;DHT22;14714;48.106;11.546;2023-06-22T03:50:07;18.20;99.90
27200;DHT22;14714;48.106;11.546;2023-06-22T03:52:34;18.30;99.90
27200;DHT22;14714;48.106;11.546;2023-06-22T03:55:01;18.40;99.90
27200;DHT22;14714;48.106;11.546;2023-06-22T03:57:28;18.50;99.90
27200;DHT22;14714;48.106;11.546;2023-06-22T03:59:56;18.60;99.90
27200;DHT22;14714;48.106;11.546;2023-06-22T04:02:23;18.80;99.90
27200;DHT22;14714;48.106;11.546;2023-06-22T04:04:50;19.00;99.90
27200;DHT22;14714;48.106;11.546;2023-06-22T04:07:17;19.30;99.90
27200;DHT22;14714;48.106;11.546;2023-06-22T04:09:44;19.60;99.90
27200;DHT22;14714;48.106;11.546;2023-06-22T04:12:11;20.10;99.90
27200;DHT22;14714;48.106;11.546;2023-06-22T04:14:38;20.50;99.90
27200;DHT22;14714;48.106;11.546;2023-06-22T04:17:05;20.90;99.90
27200;DHT22;14714;48.106;11.546;2023-06-22T04:19:31;21.30;99.90
27200;DHT22;14714;48.106;11.546;2023-06-22T04:21:58;21.70;99.90
27200;DHT22;14714;48.106;11.546;2023-06-22T04:24:25;22.10;99.90
27200;DHT22;14714;48.106;11.546;2023-06-22T04:26:52;22.50;99.90
27200;DHT22;14714;48.106;11.546;2023-06-22T04:29:21;23.00;99.90
27200;DHT22;14714;48.106;11.546;2023-06-22T04:31:56;23.50;99.90
27200;DHT22;14714;48.106;11.546;2023-06-22T04:34:25;24.00;99.90
27200;DHT22;14714;48.106;11.546;2023-06-22T04:36:55;24.40;99.90
27200;DHT22;14714;48.106;11.546;2023-06-22T04:39:22;24.90;99.90
27200;DHT22;14714;48.106;11.546;2023-06-22T04:41:49;25.30;99.90
27200;DHT22;14714;48.106;11.546;2023-06-22T04:44:18;25.70;99.90
27200;DHT22;14714;48.106;11.546;2023-06-22T04:46:53;25.90;99.90
27200;DHT22;14714;48.106;11.546;2023-06-22T04:49:36;26.20;99.90
27200;DHT22;14714;48.106;11.546;2023-06-22T04:52:09;26.60;99.90
27200;DHT22;14714;48.106;11.546;2023-06-22T04:54:38;26.90;99.90
27200;DHT22;14714;48.106;11.546;2023-06-22T04:57:07;27.20;99.90
27200;DHT22;14714;48.106;11.546;2023-06-22T04:59:38;27.40;99.40
27200;DHT22;14714;48.106;11.546;2023-06-22T05:02:08;27.50;98.10
27200;DHT22;14714;48.106;11.546;2023-06-22T05:04:35;27.50;97.60
27200;DHT22;14714;48.106;11.546;2023-06-22T05:07:06;27.80;97.10
27200;DHT22;14714;48.106;11.546;2023-06-22T05:09:33;28.30;95.80
27200;DHT22;14714;48.106;11.546;2023-06-22T05:12:03;28.90;93.90
27200;DHT22;14714;48.106;11.546;2023-06-22T05:14:33;29.40;91.70
27200;DHT22;14714;48.106;11.546;2023-06-22T05:17:00;29.50;90.10
27200;DHT22;14714;48.106;11.546;2023-06-22T05:19:30;29.80;88.40
27200;DHT22;14714;48.106;11.546;2023-06-22T05:22:01;29.90;85.60
27200;DHT22;14714;48.106;11.546;2023-06-22T05:24:27;30.10;84.00
27200;DHT22;14714;48.106;11.546;2023-06-22T05:26:54;30.40;82.70
27200;DHT22;14714;48.106;11.546;2023-06-22T05:29:22;31.00;80.70
27200;DHT22;14714;48.106;11.546;2023-06-22T05:31:49;31.70;76.40
27200;DHT22;14714;48.106;11.546;2023-06-22T05:34:16;32.40;72.80
27200;DHT22;14714;48.106;11.546;2023-06-22T05:36:43;33.10;68.40
27200;DHT22;14714;48.106;11.546;2023-06-22T05:39:14;33.70;64.90
27200;DHT22;14714;48.106;11.546;2023-06-22T05:41:41;33.90;61.90
27200;DHT22;14714;48.106;11.546;2023-06-22T05:44:09;34.00;60.20
27200;DHT22;14714;48.106;11.546;2023-06-22T05:46:36;34.10;59.60
27200;DHT22;14714;48.106;11.546;2023-06-22T05:49:03;34.30;58.90
27200;DHT22;14714;48.106;11.546;2023-06-22T05:51:30;34.40;58.30
27200;DHT22;14714;48.106;11.546;2023-06-22T05:53:57;34.60;56.90
27200;DHT22;14714;48.106;11.546;2023-06-22T05:56:23;34.70;56.80
27200;DHT22;14714;48.106;11.546;2023-06-22T05:58:50;35.10;55.60
27200;DHT22;14714;48.106;11.546;2023-06-22T06:01:18;35.20;54.70
27200;DHT22;14714;48.106;11.546;2023-06-22T06:03:44;35.50;54.30
27200;DHT22;14714;48.106;11.546;2023-06-22T06:06:12;35.90;52.70
27200;DHT22;14714;48.106;11.546;2023-06-22T06:08:39;36.30;51.20
27200;DHT22;14714;48.106;11.546;2023-06-22T06:11:06;36.80;50.30
27200;DHT22;14714;48.106;11.546;2023-06-22T06:13:33;37.00;49.50
27200;DHT22;14714;48.106;11.546;2023-06-22T06:16:00;37.30;48.40
27200;DHT22;14714;48.106;11.546;2023-06-22T06:18:27;37.60;47.60
27200;DHT22;14714;48.106;11.546;2023-06-22T06:20:54;38.00;46.60
27200;DHT22;14714;48.106;11.546;2023-06-22T06:23:21;38.30;45.70
27200;DHT22;14714;48.106;11.546;2023-06-22T06:25:47;38.60;45.90
27200;DHT22;14714;48.106;11.546;2023-06-22T06:28:14;38.70;44.70
27200;DHT22;14714;48.106;11.546;2023-06-22T06:30:41;38.90;44.30
27200;DHT22;14714;48.106;11.546;2023-06-22T06:33:09;39.20;43.20
27200;DHT22;14714;48.106;11.546;2023-06-22T06:35:36;39.50;42.80
27200;DHT22;14714;48.106;11.546;2023-06-22T06:38:04;39.90;42.30
27200;DHT22;14714;48.106;11.546;2023-06-22T06:40:31;40.10;41.90
27200;DHT22;14714;48.106;11.546;2023-06-22T06:42:58;40.40;40.40
27200;DHT22;14714;48.106;11.546;2023-06-22T06:45:25;40.50;40.40
27200;DHT22;14714;48.106;11.546;2023-06-22T06:47:53;40.40;40.20
27200;DHT22;14714;48.106;11.546;2023-06-22T06:50:21;40.80;40.00
27200;DHT22;14714;48.106;11.546;2023-06-22T06:52:47;41.20;39.50
27200;DHT22;14714;48.106;11.546;2023-06-22T06:55:17;41.30;39.00
27200;DHT22;14714;48.106;11.546;2023-06-22T06:57:44;41.50;38.50
27200;DHT22;14714;48.106;11.546;2023-06-22T07:00:13;41.30;38.50
27200;DHT22;14714;48.106;11.546;2023-06-22T07:02:43;41.20;38.10
27200;DHT22;14714;48.106;11.546;2023-06-22T07:05:11;41.70;37.50
27200;DHT22;14714;48.106;11.546;2023-06-22T07:07:39;42.00;36.70
27200;DHT22;14714;48.106;11.546;2023-06-22T07:10:06;42.00;36.40
27200;DHT22;14714;48.106;11.546;2023-06-22T07:12:33;42.00;36.30
27200;DHT22;14714;48.106;11.546;2023-06-22T07:15:10;42.10;36.20
27200;DHT22;14714;48.106;11.546;2023-06-22T07:17:38;42.40;35.90
27200;DHT22;14714;48.106;11.546;2023-06-22T07:20:08;42.80;35.40
27200;DHT22;14714;48.106;11.546;2023-06-22T07:22:42;43.00;34.40
27200;DHT22;14714;48.106;11.546;2023-06-22T07:25:10;42.70;35.00
27200;DHT22;14714;48.106;11.546;2023-06-22T07:28:04;42.50;34.90
27200;DHT22;14714;48.106;11.546;2023-06-22T07:30:32;42.90;34.30
27200;DHT22;14714;48.106;11.546;2023-06-22T07:33:00;43.10;34.00
27200;DHT22;14714;48.106;11.546;2023-06-22T07:35:31;42.80;34.20
27200;DHT22;14714;48.106;11.546;2023-06-22T07:37:58;42.90;34.30
27200;DHT22;14714;48.106;11.546;2023-06-22T07:40:29;42.90;34.30
27200;DHT22;14714;48.106;11.546;2023-06-22T07:42:57;42.90;34.10
27200;DHT22;14714;48.106;11.546;2023-06-22T07:45:24;43.40;33.20
27200;DHT22;14714;48.106;11.546;2023-06-22T07:47:50;43.80;32.40
27200;DHT22;14714;48.106;11.546;2023-06-22T07:50:17;43.80;32.60
27200;DHT22;14714;48.106;11.546;2023-06-22T07:52:44;43.70;32.30
27200;DHT22;14714;48.106;11.546;2023-06-22T07:55:11;43.80;32.70
27200;DHT22;14714;48.106;11.546;2023-06-22T07:57:37;44.30;32.50
27200;DHT22;14714;48.106;11.546;2023-06-22T08:00:05;44.30;32.00
27200;DHT22;14714;48.106;11.546;2023-06-22T08:02:43;44.00;32.10
27200;DHT22;14714;48.106;11.546;2023-06-22T08:05:11;43.60;32.10
27200;DHT22;14714;48.106;11.546;2023-06-22T08:07:41;43.60;32.70
27200;DHT22;14714;48.106;11.546;2023-06-22T08:10:11;43.80;31.90
27200;DHT22;14714;48.106;11.546;2023-06-22T08:12:41;43.80;31.70
27200;DHT22;14714;48.106;11.546;2023-06-22T08:15:09;43.90;31.80
27200;DHT22;14714;48.106;11.546;2023-06-22T08:17:37;44.40;31.80
27200;DHT22;14714;48.106;11.546;2023-06-22T08:20:08;44.60;30.90
27200;DHT22;14714;48.106;11.546;2023-06-22T08:22:36;45.20;30.60
27200;DHT22;14714;48.106;11.546;2023-06-22T08:25:03;45.60;30.00
27200;DHT22;14714;48.106;11.546;2023-06-22T08:27:30;46.00;29.90
27200;DHT22;14714;48.106;11.546;2023-06-22T08:29:59;45.70;30.00
27200;DHT22;14714;48.106;11.546;2023-06-22T08:32:30;45.10;30.70
27200;DHT22;14714;48.106;11.546;2023-06-22T08:34:57;44.60;30.40
27200;DHT22;14714;48.106;11.546;2023-06-22T08:37:24;43.50;32.50
27200;DHT22;14714;48.106;11.546;2023-06-22T08:39:59;42.20;33.70
27200;DHT22;14714;48.106;11.546;2023-06-22T08:42:26;41.00;36.20
27200;DHT22;14714;48.106;11.546;2023-06-22T08:44:53;40.00;37.20
27200;DHT22;14714;48.106;11.546;2023-06-22T08:47:20;39.40;38.10
27200;DHT22;14714;48.106;11.546;2023-06-22T08:49:48;39.30;38.80
27200;DHT22;14714;48.106;11.546;2023-06-22T08:52:15;39.30;38.60
27200;DHT22;14714;48.106;11.546;2023-06-22T08:54:42;39.10;39.70
27200;DHT22;14714;48.106;11.546;2023-06-22T08:57:09;39.50;39.00
27200;DHT22;14714;48.106;11.546;2023-06-22T08:59:35;39.90;38.10
27200;DHT22;14714;48.106;11.546;2023-06-22T09:02:02;40.20;37.50
27200;DHT22;14714;48.106;11.546;2023-06-22T09:04:29;40.70;36.80
27200;DHT22;14714;48.106;11.546;2023-06-22T09:06:56;40.90;37.00
27200;DHT22;14714;48.106;11.546;2023-06-22T09:09:23;40.90;36.20
27200;DHT22;14714;48.106;11.546;2023-06-22T09:11:50;41.00;35.80
27200;DHT22;14714;48.106;11.546;2023-06-22T09:14:17;40.90;35.60
27200;DHT22;14714;48.106;11.546;2023-06-22T09:16:43;41.10;35.80
27200;DHT22;14714;48.106;11.546;2023-06-22T09:19:10;41.10;35.40
27200;DHT22;14714;48.106;11.546;2023-06-22T09:21:37;41.20;35.30
27200;DHT22;14714;48.106;11.546;2023-06-22T09:24:04;40.90;36.00
27200;DHT22;14714;48.106;11.546;2023-06-22T09:26:31;40.40;36.50
27200;DHT22;14714;48.106;11.546;2023-06-22T09:28:58;40.30;36.60
27200;DHT22;14714;48.106;11.546;2023-06-22T09:31:25;40.60;36.30
27200;DHT22;14714;48.106;11.546;2023-06-22T09:33:55;41.10;36.00
27200;DHT22;14714;48.106;11.546;2023-06-22T09:36:22;41.20;35.40
27200;DHT22;14714;48.106;11.546;2023-06-22T09:38:49;40.50;36.40
27200;DHT22;14714;48.106;11.546;2023-06-22T09:41:22;40.00;37.10
27200;DHT22;14714;48.106;11.546;2023-06-22T09:43:49;40.20;37.40
27200;DHT22;14714;48.106;11.546;2023-06-22T09:46:16;40.60;36.70
27200;DHT22;14714;48.106;11.546;2023-06-22T09:48:43;41.00;36.50
27200;DHT22;14714;48.106;11.546;2023-06-22T09:51:11;41.50;35.40
27200;DHT22;14714;48.106;11.546;2023-06-22T09:53:38;41.70;34.30
27200;DHT22;14714;48.106;11.546;2023-06-22T09:56:04;41.90;35.00
27200;DHT22;14714;48.106;11.546;2023-06-22T09:58:32;42.10;34.10
27200;DHT22;14714;48.106;11.546;2023-06-22T10:00:59;41.70;34.60
27200;DHT22;14714;48.106;11.546;2023-06-22T10:03:26;41.40;34.90
27200;DHT22;14714;48.106;11.546;2023-06-22T10:05:53;41.30;34.90
27200;DHT22;14714;48.106;11.546;2023-06-22T10:08:20;41.20;35.20
27200;DHT22;14714;48.106;11.546;2023-06-22T10:10:47;41.40;34.90
27200;DHT22;14714;48.106;11.546;2023-06-22T10:13:13;41.50;35.60
27200;DHT22;14714;48.106;11.546;2023-06-22T10:15:41;41.60;35.80
27200;DHT22;14714;48.106;11.546;2023-06-22T10:18:09;41.80;35.00
27200;DHT22;14714;48.106;11.546;2023-06-22T10:20:36;41.90;34.80
27200;DHT22;14714;48.106;11.546;2023-06-22T10:23:03;41.70;34.20
27200;DHT22;14714;48.106;11.546;2023-06-22T10:25:29;41.80;33.80
27200;DHT22;14714;48.106;11.546;2023-06-22T10:27:57;41.90;34.40
27200;DHT22;14714;48.106;11.546;2023-06-22T10:30:24;41.70;34.80
27200;DHT22;14714;48.106;11.546;2023-06-22T10:32:50;41.50;34.60
27200;DHT22;14714;48.106;11.546;2023-06-22T10:35:17;41.10;35.90
27200;DHT22;14714;48.106;11.546;2023-06-22T10:37:45;40.80;35.40
27200;DHT22;14714;48.106;11.546;2023-06-22T10:40:16;40.60;36.10
27200;DHT22;14714;48.106;11.546;2023-06-22T10:42:43;40.40;36.70
27200;DHT22;14714;48.106;11.546;2023-06-22T10:45:11;40.50;36.60
27200;DHT22;14714;48.106;11.546;2023-06-22T10:47:38;40.40;36.60
27200;DHT22;14714;48.106;11.546;2023-06-22T10:50:05;40.30;37.00
27200;DHT22;14714;48.106;11.546;2023-06-22T10:52:32;40.10;37.10
27200;DHT22;14714;48.106;11.546;2023-06-22T10:54:59;40.00;37.30
27200;DHT22;14714;48.106;11.546;2023-06-22T10:57:26;40.00;37.60
27200;DHT22;14714;48.106;11.546;2023-06-22T10:59:53;40.00;37.40
27200;DHT22;14714;48.106;11.546;2023-06-22T11:02:20;39.80;38.10
27200;DHT22;14714;48.106;11.546;2023-06-22T11:04:47;39.50;37.40
27200;DHT22;14714;48.106;11.546;2023-06-22T11:07:16;39.00;38.10
27200;DHT22;14714;48.106;11.546;2023-06-22T11:09:45;38.50;39.30
27200;DHT22;14714;48.106;11.546;2023-06-22T11:12:12;37.90;39.70
27200;DHT22;14714;48.106;11.546;2023-06-22T11:14:39;37.50;40.80
27200;DHT22;14714;48.106;11.546;2023-06-22T11:17:06;37.10;41.60
27200;DHT22;14714;48.106;11.546;2023-06-22T11:19:33;37.00;42.20
27200;DHT22;14714;48.106;11.546;2023-06-22T11:22:00;36.80;42.50
27200;DHT22;14714;48.106;11.546;2023-06-22T11:24:26;36.70;42.90
27200;DHT22;14714;48.106;11.546;2023-06-22T11:26:53;36.70;43.70
27200;DHT22;14714;48.106;11.546;2023-06-22T11:29:20;36.60;43.00
27200;DHT22;14714;48.106;11.546;2023-06-22T11:32:02;36.70;42.50
27200;DHT22;14714;48.106;11.546;2023-06-22T11:34:29;37.00;42.20
27200;DHT22;14714;48.106;11.546;2023-06-22T11:36:56;37.10;42.30
27200;DHT22;14714;48.106;11.546;2023-06-22T11:39:23;37.20;41.70
27200;DHT22;14714;48.106;11.546;2023-06-22T11:42:07;37.40;41.80
27200;DHT22;14714;48.106;11.546;2023-06-22T11:44:34;37.40;41.30
27200;DHT22;14714;48.106;11.546;2023-06-22T11:47:01;37.50;41.80
27200;DHT22;14714;48.106;11.546;2023-06-22T11:49:31;37.60;41.80
27200;DHT22;14714;48.106;11.546;2023-06-22T11:51:57;37.60;41.80
27200;DHT22;14714;48.106;11.546;2023-06-22T11:54:24;37.60;41.70
27200;DHT22;14714;48.106;11.546;2023-06-22T11:56:51;37.50;41.20
27200;DHT22;14714;48.106;11.546;2023-06-22T11:59:18;37.40;41.80
27200;DHT22;14714;48.106;11.546;2023-06-22T12:01:45;37.30;42.20
27200;DHT22;14714;48.106;11.546;2023-06-22T12:04:12;37.30;43.40
27200;DHT22;14714;48.106;11.546;2023-06-22T12:06:39;37.20;43.00
27200;DHT22;14714;48.106;11.546;2023-06-22T12:09:09;37.10;43.90
27200;DHT22;14714;48.106;11.546;2023-06-22T12:11:36;36.90;42.20
27200;DHT22;14714;48.106;11.546;2023-06-22T12:14:03;36.90;44.10
27200;DHT22;14714;48.106;11.546;2023-06-22T12:16:31;36.80;44.80
27200;DHT22;14714;48.106;11.546;2023-06-22T12:18:57;36.70;43.90
27200;DHT22;14714;48.106;11.546;2023-06-22T12:21:24;36.80;43.40
27200;DHT22;14714;48.106;11.546;2023-06-22T12:23:51;37.00;43.70
27200;DHT22;14714;48.106;11.546;2023-06-22T12:26:18;37.10;44.10
27200;DHT22;14714;48.106;11.546;2023-06-22T12:28:44;37.00;44.20
27200;DHT22;14714;48.106;11.546;2023-06-22T12:31:12;36.90;44.40
27200;DHT22;14714;48.106;11.546;2023-06-22T12:33:39;36.90;44.00
27200;DHT22;14714;48.106;11.546;2023-06-22T12:36:06;36.90;44.30
27200;DHT22;14714;48.106;11.546;2023-06-22T12:38:33;37.00;43.30
27200;DHT22;14714;48.106;11.546;2023-06-22T12:41:00;37.00;44.50
27200;DHT22;14714;48.106;11.546;2023-06-22T12:43:27;36.90;44.40
27200;DHT22;14714;48.106;11.546;2023-06-22T12:45:54;36.70;45.10
27200;DHT22;14714;48.106;11.546;2023-06-22T12:48:22;36.40;45.10
27200;DHT22;14714;48.106;11.546;2023-06-22T12:50:48;36.10;45.60
27200;DHT22;14714;48.106;11.546;2023-06-22T12:53:15;36.00;46.20
27200;DHT22;14714;48.106;11.546;2023-06-22T12:55:42;36.00;46.50
27200;DHT22;14714;48.106;11.546;2023-06-22T12:58:09;35.90;46.40
27200;DHT22;14714;48.106;11.546;2023-06-22T13:00:36;35.90;46.70
27200;DHT22;14714;48.106;11.546;2023-06-22T13:03:03;35.90;46.90
27200;DHT22;14714;48.106;11.546;2023-06-22T13:05:29;35.80;47.50
27200;DHT22;14714;48.106;11.546;2023-06-22T13:07:57;35.70;47.40
27200;DHT22;14714;48.106;11.546;2023-06-22T13:10:24;35.70;48.00
27200;DHT22;14714;48.106;11.546;2023-06-22T13:12:50;35.70;47.40
27200;DHT22;14714;48.106;11.546;2023-06-22T13:15:18;35.70;47.90
27200;DHT22;14714;48.106;11.546;2023-06-22T13:17:45;35.70;48.10
27200;DHT22;14714;48.106;11.546;2023-06-22T13:20:12;35.70;47.60
27200;DHT22;14714;48.106;11.546;2023-06-22T13:22:39;35.60;48.20
27200;DHT22;14714;48.106;11.546;2023-06-22T13:25:10;35.50;48.60
27200;DHT22;14714;48.106;11.546;2023-06-22T13:27:40;35.40;48.60
27200;DHT22;14714;48.106;11.546;2023-06-22T13:30:08;35.40;48.70
27200;DHT22;14714;48.106;11.546;2023-06-22T13:32:40;35.30;48.80
27200;DHT22;14714;48.106;11.546;2023-06-22T13:35:12;35.30;48.80
27200;DHT22;14714;48.106;11.546;2023-06-22T13:37:39;35.30;49.00
27200;DHT22;14714;48.106;11.546;2023-06-22T13:40:07;35.40;48.90
27200;DHT22;14714;48.106;11.546;2023-06-22T13:42:34;35.30;48.50
27200;DHT22;14714;48.106;11.546;2023-06-22T13:45:01;35.20;48.40
27200;DHT22;14714;48.106;11.546;2023-06-22T13:47:29;35.20;49.30
27200;DHT22;14714;48.106;11.546;2023-06-22T13:49:57;35.10;49.50
27200;DHT22;14714;48.106;11.546;2023-06-22T13:52:25;35.10;49.40
27200;DHT22;14714;48.106;11.546;2023-06-22T13:54:51;35.10;49.90
27200;DHT22;14714;48.106;11.546;2023-06-22T13:57:18;35.00;50.10
27200;DHT22;14714;48.106;11.546;2023-06-22T13:59:45;35.00;50.00
27200;DHT22;14714;48.106;11.546;2023-06-22T14:02:12;35.00;49.90
27200;DHT22;14714;48.106;11.546;2023-06-22T14:04:38;34.80;50.10
27200;DHT22;14714;48.106;11.546;2023-06-22T14:07:05;34.70;50.30
27200;DHT22;14714;48.106;11.546;2023-06-22T14:09:32;34.70;50.80
27200;DHT22;14714;48.106;11.546;2023-06-22T14:12:03;34.50;50.80
27200;DHT22;14714;48.106;11.546;2023-06-22T14:14:32;34.40;51.90
27200;DHT22;14714;48.106;11.546;2023-06-22T14:17:00;34.30;51.50
27200;DHT22;14714;48.106;11.546;2023-06-22T14:19:26;34.10;51.70
27200;DHT22;14714;48.106;11.546;2023-06-22T14:21:53;34.00;51.60
27200;DHT22;14714;48.106;11.546;2023-06-22T14:24:20;34.00;52.40
27200;DHT22;14714;48.106;11.546;2023-06-22T14:26:51;34.00;52.30
27200;DHT22;14714;48.106;11.546;2023-06-22T14:29:18;34.00;51.70
27200;DHT22;14714;48.106;11.546;2023-06-22T14:31:45;33.90;51.80
27200;DHT22;14714;48.106;11.546;2023-06-22T14:34:13;33.80;51.90
27200;DHT22;14714;48.106;11.546;2023-06-22T14:36:40;33.80;51.70
27200;DHT22;14714;48.106;11.546;2023-06-22T14:39:07;33.80;51.90
27200;DHT22;14714;48.106;11.546;2023-06-22T14:41:33;33.80;51.40
27200;DHT22;14714;48.106;11.546;2023-06-22T14:44:00;33.80;51.60
27200;DHT22;14714;48.106;11.546;2023-06-22T14:46:27;33.80;51.40
27200;DHT22;14714;48.106;11.546;2023-06-22T14:48:54;33.80;51.80
27200;DHT22;14714;48.106;11.546;2023-06-22T14:51:21;33.80;51.50
27200;DHT22;14714;48.106;11.546;2023-06-22T14:53:48;33.70;50.80
27200;DHT22;14714;48.106;11.546;2023-06-22T14:56:15;33.70;51.60
27200;DHT22;14714;48.106;11.546;2023-06-22T14:58:43;33.60;51.30
27200;DHT22;14714;48.106;11.546;2023-06-22T15:01:16;33.60;51.60
27200;DHT22;14714;48.106;11.546;2023-06-22T15:03:43;33.60;51.50
27200;DHT22;14714;48.106;11.546;2023-06-22T15:06:10;33.50;51.10
27200;DHT22;14714;48.106;11.546;2023-06-22T15:08:40;33.50;51.30
27200;DHT22;14714;48.106;11.546;2023-06-22T15:11:07;33.50;51.30
27200;DHT22;14714;48.106;11.546;2023-06-22T15:13:35;33.50;50.70
27200;DHT22;14714;48.106;11.546;2023-06-22T15:16:05;33.50;51.00
27200;DHT22;14714;48.106;11.546;2023-06-22T15:18:32;33.50;50.30
27200;DHT22;14714;48.106;11.546;2023-06-22T15:21:00;33.50;49.90
27200;DHT22;14714;48.106;11.546;2023-06-22T15:23:29;33.50;49.90
27200;DHT22;14714;48.106;11.546;2023-06-22T15:25:56;33.40;50.20